createdAt,value
2022-12-03T00:00:57.518Z,22.90
2022-12-03T00:03:29.319Z,22.17
2022-12-03T00:06:00.398Z,24.27
2022-12-03T00:08:30.968Z,24.93
2022-12-03T00:11:01.507Z,24.83
2022-12-03T00:13:32.037Z,26.33
2022-12-03T00:16:02.824Z,26.33
2022-12-03T00:18:33.501Z,25.33
2022-12-03T00:21:04.109Z,23.43
2022-12-03T00:23:40.151Z,25.30
2022-12-03T00:26:07.270Z,25.27
2022-12-03T00:28:37.828Z,25.17
2022-12-03T00:31:08.717Z,24.97
2022-12-03T00:33:39.328Z,24.07
2022-12-03T00:36:11.540Z,25.13
2022-12-03T00:38:42.106Z,25.23
2022-12-03T00:41:13.158Z,23.83
2022-12-03T00:43:43.772Z,22.40
2022-12-03T00:46:19.690Z,23.90
2022-12-03T00:48:46.596Z,22.53
2022-12-03T00:51:17.092Z,22.60
2022-12-03T00:53:47.656Z,23.00
2022-12-03T00:56:18.251Z,22.90
2022-12-03T00:58:49.636Z,23.50
2022-12-03T01:01:20.265Z,23.87
2022-12-03T01:03:50.952Z,25.30
2022-12-03T01:06:21.557Z,22.50
2022-12-03T01:08:52.105Z,23.23
2022-12-03T01:11:41.542Z,24.63
2022-12-03T01:14:14.380Z,23.33
2022-12-03T01:16:45.194Z,23.67
2022-12-03T01:19:16.927Z,22.37
2022-12-03T01:21:49.409Z,20.97
2022-12-03T01:24:20.854Z,22.43
2022-12-03T01:26:51.499Z,20.47
2022-12-03T01:29:22.024Z,22.40
2022-12-03T01:32:10.274Z,21.27
2022-12-03T01:34:40.980Z,21.67
2022-12-03T01:37:11.567Z,21.87
2022-12-03T01:39:43.593Z,22.80
2022-12-03T01:42:18.504Z,20.27
2022-12-03T01:44:50.205Z,21.77
2022-12-03T01:47:23.693Z,22.00
2022-12-03T01:49:57.639Z,22.50
2022-12-03T01:52:31.084Z,19.17
2022-12-03T01:55:04.169Z,21.17
2022-12-03T01:57:38.340Z,21.13
2022-12-03T02:00:15.398Z,20.23
2022-12-03T02:02:46.337Z,20.40
2022-12-03T02:05:20.716Z,21.40
2022-12-03T02:07:51.878Z,20.13
2022-12-03T02:10:24.967Z,20.20
2022-12-03T02:12:58.542Z,20.17
2022-12-03T02:15:29.911Z,18.43
2022-12-03T02:18:01.068Z,19.70
2022-12-03T02:20:34.592Z,19.30
2022-12-03T02:23:08.407Z,19.50
2022-12-03T02:25:39.866Z,18.67
2022-12-03T02:28:11.515Z,20.10
2022-12-03T02:30:42.429Z,21.00
2022-12-03T02:33:13.248Z,20.67
2022-12-03T02:35:44.140Z,19.93
2022-12-03T02:38:17.842Z,20.17
2022-12-03T02:40:50.107Z,19.40
2022-12-03T02:43:23.549Z,21.87
2022-12-03T02:45:56.492Z,20.10
2022-12-03T02:48:32.020Z,19.67
2022-12-03T02:51:05.419Z,20.47
2022-12-03T02:53:41.086Z,20.70
2022-12-03T02:56:13.395Z,19.67
2022-12-03T02:58:45.337Z,19.07
2022-12-03T03:01:17.230Z,18.70
2022-12-03T03:03:49.663Z,19.90
2022-12-03T03:06:21.737Z,20.03
2022-12-03T03:08:52.423Z,19.33
2022-12-03T03:11:23.152Z,19.60
2022-12-03T03:13:53.680Z,18.10
2022-12-03T03:16:24.564Z,18.20
2022-12-03T03:18:55.268Z,18.30
2022-12-03T03:21:25.916Z,18.70
2022-12-03T03:23:56.490Z,18.70
2022-12-03T03:26:28.198Z,19.17
2022-12-03T03:29:00.327Z,18.37
2022-12-03T03:31:31.194Z,17.87
2022-12-03T03:34:02.144Z,17.73
2022-12-03T03:36:33.786Z,17.70
2022-12-03T03:39:04.910Z,17.60
2022-12-03T03:41:36.484Z,18.63
2022-12-03T03:44:09.570Z,19.00
2022-12-03T03:46:40.954Z,17.77
2022-12-03T03:49:12.284Z,17.40
2022-12-03T03:51:42.982Z,19.67
2022-12-03T03:54:13.849Z,17.93
2022-12-03T03:56:44.849Z,19.83
2022-12-03T03:59:16.760Z,18.43
2022-12-03T04:01:48.037Z,18.00
2022-12-03T04:04:21.727Z,17.17
2022-12-03T04:06:52.526Z,16.60
2022-12-03T04:09:23.114Z,17.63
2022-12-03T04:12:11.355Z,16.70
2022-12-03T04:14:42.038Z,16.47
2022-12-03T04:17:12.614Z,17.10
2022-12-03T04:19:43.205Z,16.50
2022-12-03T04:22:31.314Z,16.23
2022-12-03T04:25:37.954Z,16.53
2022-12-03T04:28:27.345Z,16.47
2022-12-03T04:30:58.013Z,17.10
2022-12-03T04:33:46.754Z,16.20
2022-12-03T04:36:18.379Z,15.67
2022-12-03T04:38:48.933Z,17.17
2022-12-03T04:41:19.495Z,15.50
2022-12-03T04:44:08.850Z,15.50
2022-12-03T04:46:39.599Z,16.60
2022-12-03T04:49:10.113Z,15.50
2022-12-03T04:51:40.821Z,15.37
2022-12-03T04:54:11.382Z,15.47
2022-12-03T04:56:42.006Z,15.70
2022-12-03T04:59:15.985Z,15.00
2022-12-03T05:01:45.034Z,15.27
2022-12-03T05:04:16.621Z,14.80
2022-12-03T05:06:47.293Z,14.57
2022-12-03T05:09:17.870Z,15.47
2022-12-03T05:11:48.478Z,13.80
2022-12-03T05:14:19.056Z,15.37
2022-12-03T05:16:49.695Z,15.03
2022-12-03T05:19:20.344Z,14.83
2022-12-03T05:21:50.889Z,15.97
2022-12-03T05:24:21.501Z,14.63
2022-12-03T05:26:52.232Z,15.57
2022-12-03T05:29:22.944Z,15.63
2022-12-03T05:31:53.494Z,14.97
2022-12-03T05:34:24.188Z,14.97
2022-12-03T05:36:54.834Z,15.10
2022-12-03T05:39:25.780Z,15.20
2022-12-03T05:42:14.094Z,16.17
2022-12-03T05:44:44.725Z,15.27
2022-12-03T05:47:15.383Z,16.07
2022-12-03T05:49:46.058Z,15.77
2022-12-03T05:52:16.645Z,14.40
2022-12-03T05:54:47.472Z,15.33
2022-12-03T05:57:18.345Z,14.90
2022-12-03T05:59:48.922Z,15.20
2022-12-03T06:02:19.640Z,15.50
2022-12-03T06:04:50.637Z,14.10
2022-12-03T06:07:21.515Z,15.87
2022-12-03T06:09:52.121Z,15.67
2022-12-03T06:12:22.645Z,15.57
2022-12-03T06:14:55.293Z,15.53
2022-12-03T06:17:26.354Z,16.13
2022-12-03T06:19:57.049Z,15.13
2022-12-03T06:22:28.713Z,15.43
2022-12-03T06:25:03.563Z,15.23
2022-12-03T06:27:31.803Z,15.83
2022-12-03T06:30:02.566Z,15.43
2022-12-03T06:32:33.198Z,15.47
2022-12-03T06:35:03.936Z,16.17
2022-12-03T06:37:34.644Z,17.00
2022-12-03T06:40:05.507Z,15.90
2022-12-03T06:42:36.262Z,15.10
2022-12-03T06:45:09.002Z,14.57
2022-12-03T06:47:40.591Z,15.07
2022-12-03T06:50:12.790Z,14.53
2022-12-03T06:52:43.425Z,13.53
2022-12-03T06:55:16.011Z,14.40
2022-12-03T06:57:47.638Z,15.73
2022-12-03T07:00:19.484Z,14.67
2022-12-03T07:02:50.794Z,14.23
2022-12-03T07:05:21.887Z,14.33
2022-12-03T07:07:54.484Z,14.63
2022-12-03T07:10:25.629Z,14.33
2022-12-03T07:12:56.157Z,14.80
2022-12-03T07:15:26.970Z,14.93
2022-12-03T07:17:58.092Z,14.80
2022-12-03T07:20:28.721Z,15.97
2022-12-03T07:22:59.550Z,13.70
2022-12-03T07:25:30.521Z,14.93
2022-12-03T07:30:39.787Z,15.20
2022-12-03T07:33:10.385Z,15.37
2022-12-03T07:35:42.186Z,15.20
2022-12-03T07:38:12.725Z,14.33
2022-12-03T07:40:43.241Z,14.77
2022-12-03T07:43:13.816Z,14.80
2022-12-03T07:45:44.526Z,15.43
2022-12-03T07:48:15.094Z,14.37
2022-12-03T07:53:24.052Z,15.03
2022-12-03T07:55:54.691Z,15.60
2022-12-03T07:58:25.275Z,15.77
2022-12-03T08:00:55.943Z,16.83
2022-12-03T08:03:26.714Z,15.60
2022-12-03T08:05:57.419Z,15.93
2022-12-03T08:08:28.151Z,15.43
2022-12-03T08:10:58.718Z,14.77
2022-12-03T08:13:30.236Z,16.07
2022-12-03T08:16:03.257Z,15.67
2022-12-03T08:18:34.276Z,15.50
2022-12-03T08:21:07.579Z,15.03
2022-12-03T08:23:38.251Z,15.67
2022-12-03T08:29:00.718Z,17.17
2022-12-03T08:31:33.655Z,15.80
2022-12-03T08:37:00.917Z,16.13
2022-12-03T08:39:37.845Z,15.93
2022-12-03T08:42:32.244Z,15.47
2022-12-03T08:45:23.258Z,15.67
2022-12-03T08:47:53.940Z,16.53
2022-12-03T08:53:12.410Z,18.57
2022-12-03T08:55:45.931Z,15.53
2022-12-03T08:58:21.827Z,16.07
2022-12-03T09:00:54.620Z,16.47
2022-12-03T09:03:25.475Z,16.33
2022-12-03T09:05:56.044Z,15.87
2022-12-03T09:08:26.631Z,16.03
2022-12-03T09:10:57.297Z,16.07
2022-12-03T09:13:28.104Z,15.40
2022-12-03T09:15:58.733Z,16.10
2022-12-03T09:18:29.464Z,16.37
2022-12-03T09:21:00.030Z,15.57
2022-12-03T09:23:30.626Z,15.87
2022-12-03T09:26:01.270Z,16.37
2022-12-03T09:28:31.819Z,17.23
2022-12-03T09:31:02.415Z,16.47
2022-12-03T09:33:33.434Z,16.77
2022-12-03T09:36:04.282Z,16.70
2022-12-03T09:38:35.266Z,17.00
2022-12-03T09:41:06.068Z,18.07
2022-12-03T09:44:02.718Z,16.00
2022-12-03T09:46:10.008Z,18.47
2022-12-03T09:48:41.342Z,17.60
2022-12-03T09:51:13.195Z,17.73
2022-12-03T09:53:44.368Z,18.73
2022-12-03T09:56:20.516Z,17.63
2022-12-03T09:58:51.961Z,16.57
2022-12-03T10:01:25.831Z,19.37
2022-12-03T10:03:55.891Z,18.93
2022-12-03T10:06:27.510Z,19.00
2022-12-03T10:09:00.303Z,17.87
2022-12-03T10:11:32.225Z,19.17
2022-12-03T10:14:03.284Z,19.30
2022-12-03T10:16:34.578Z,20.33
2022-12-03T10:19:05.647Z,19.13
2022-12-03T10:21:39.122Z,18.30
2022-12-03T10:24:28.756Z,18.30
2022-12-03T10:27:01.702Z,18.70
2022-12-03T10:29:35.022Z,20.20
2022-12-03T10:32:07.777Z,19.60
2022-12-03T10:34:40.673Z,19.87
2022-12-03T10:37:18.030Z,20.60
2022-12-03T10:39:57.788Z,19.53
2022-12-03T10:42:30.450Z,19.50
2022-12-03T10:45:15.426Z,19.87
2022-12-03T10:47:48.080Z,19.40
2022-12-03T10:50:21.040Z,20.67
2022-12-03T10:52:51.612Z,20.70
2022-12-03T10:55:22.469Z,19.73
2022-12-03T10:57:53.175Z,19.53
2022-12-03T11:00:25.640Z,20.57
2022-12-03T11:02:57.174Z,19.60
2022-12-03T11:05:29.884Z,20.70
2022-12-03T11:08:00.545Z,21.27
2022-12-03T11:10:31.200Z,18.90
2022-12-03T11:13:40.214Z,19.87
2022-12-03T11:16:11.006Z,20.53
2022-12-03T11:19:03.380Z,20.00
2022-12-03T11:21:34.105Z,19.00
2022-12-03T11:24:20.776Z,20.33
2022-12-03T11:27:20.894Z,18.87
2022-12-03T11:30:02.907Z,19.47
2022-12-03T11:33:09.848Z,21.00
2022-12-03T11:36:31.774Z,19.17
2022-12-03T11:38:58.954Z,18.70
2022-12-03T11:41:33.141Z,19.50
2022-12-03T11:44:32.933Z,19.80
2022-12-03T11:47:12.907Z,19.07
2022-12-03T11:49:50.190Z,18.47
2022-12-03T11:52:27.503Z,19.07
2022-12-03T11:55:03.047Z,19.37
2022-12-03T11:57:40.555Z,19.20
2022-12-03T12:00:18.081Z,18.97
2022-12-03T12:02:49.241Z,18.37
2022-12-03T12:05:24.280Z,19.50
2022-12-03T12:07:56.090Z,17.67
2022-12-03T12:13:54.680Z,19.20
2022-12-03T12:16:48.832Z,18.67
2022-12-03T12:22:33.435Z,19.87
2022-12-03T12:25:06.034Z,17.73
2022-12-03T12:27:39.574Z,19.07
2022-12-03T12:30:14.797Z,18.03
2022-12-03T12:32:48.014Z,19.40
2022-12-03T12:35:21.079Z,18.73
2022-12-03T12:37:59.742Z,19.53
2022-12-03T12:40:29.056Z,18.73
2022-12-03T12:43:05.576Z,19.10
2022-12-03T12:45:36.531Z,18.33
2022-12-03T12:48:13.355Z,18.23
2022-12-03T12:50:46.796Z,17.37
2022-12-03T12:53:22.751Z,17.73
2022-12-03T12:58:36.149Z,17.80
2022-12-03T13:01:10.546Z,18.00
2022-12-03T13:03:43.807Z,18.47
2022-12-03T13:06:17.504Z,26.43
2022-12-03T13:08:50.855Z,19.30
2022-12-03T13:11:30.286Z,19.60
2022-12-03T13:14:02.823Z,18.10
2022-12-03T13:16:36.811Z,18.50
2022-12-03T13:19:20.445Z,19.20
2022-12-03T13:21:52.724Z,17.03
2022-12-03T13:24:34.114Z,19.07
2022-12-03T13:27:10.401Z,17.93
2022-12-03T13:29:41.569Z,18.07
2022-12-03T13:32:15.855Z,21.33
2022-12-03T13:34:47.003Z,19.43
2022-12-03T13:37:21.212Z,18.57
2022-12-03T13:39:54.360Z,18.63
2022-12-03T13:42:39.539Z,18.67
2022-12-03T13:48:04.606Z,16.80
2022-12-03T13:50:38.001Z,19.03
2022-12-03T13:55:54.095Z,19.80
2022-12-03T13:58:24.733Z,18.23
2022-12-03T14:00:55.470Z,17.60
2022-12-03T14:03:26.124Z,18.43
2022-12-03T14:05:57.781Z,18.83
2022-12-03T14:08:28.575Z,18.00
2022-12-03T14:11:00.841Z,18.17
2022-12-03T14:13:32.111Z,19.40
2022-12-03T14:16:03.210Z,18.60
2022-12-03T14:18:34.109Z,19.90
2022-12-03T14:21:04.978Z,18.80
2022-12-03T14:23:35.553Z,18.30
2022-12-03T14:26:06.481Z,18.03
2022-12-03T14:28:37.053Z,17.40
2022-12-03T14:31:07.993Z,20.50
2022-12-03T14:33:38.821Z,20.73
2022-12-03T14:36:11.766Z,18.80
2022-12-03T14:38:42.383Z,16.53
2022-12-03T14:41:49.284Z,17.00
2022-12-03T14:46:59.050Z,17.47
2022-12-03T14:49:29.726Z,17.47
2022-12-03T14:52:00.696Z,16.87
2022-12-03T14:54:31.867Z,16.67
2022-12-03T14:57:02.593Z,17.03
2022-12-03T14:59:33.301Z,16.97
2022-12-03T15:02:04.229Z,16.60
2022-12-03T15:04:35.455Z,16.87
2022-12-03T15:07:06.560Z,17.63
2022-12-03T15:09:38.024Z,16.77
2022-12-03T15:12:09.885Z,16.93
2022-12-03T15:14:41.552Z,16.67
2022-12-03T15:17:12.261Z,18.00
2022-12-03T15:19:43.230Z,17.63
2022-12-03T15:22:13.822Z,17.20
2022-12-03T15:24:44.452Z,17.57
2022-12-03T15:27:15.081Z,17.27
2022-12-03T15:29:45.720Z,17.07
2022-12-03T15:32:16.493Z,17.70
2022-12-03T15:34:49.830Z,14.93
2022-12-03T15:37:20.745Z,15.77
2022-12-03T15:39:51.440Z,15.13
2022-12-03T15:42:22.115Z,14.03
2022-12-03T15:44:52.748Z,14.47
2022-12-03T15:47:23.439Z,14.60
2022-12-03T15:49:54.452Z,14.43
2022-12-03T15:52:25.303Z,14.40
2022-12-03T15:54:56.206Z,14.50
2022-12-03T15:57:26.830Z,13.90
2022-12-03T15:59:57.599Z,13.60
2022-12-03T16:02:30.429Z,12.97
2022-12-03T16:05:01.621Z,12.90
2022-12-03T16:07:32.374Z,13.73
2022-12-03T16:10:03.240Z,14.40
2022-12-03T16:12:34.140Z,14.97
2022-12-03T16:15:05.295Z,14.70
2022-12-03T16:17:36.119Z,13.40
2022-12-03T16:20:09.460Z,13.57
2022-12-03T16:22:40.615Z,13.80
2022-12-03T16:25:12.061Z,13.80
2022-12-03T16:27:42.615Z,14.93
2022-12-03T16:30:15.558Z,15.70
2022-12-03T16:32:46.176Z,14.50
2022-12-03T16:35:17.104Z,15.43
2022-12-03T16:37:47.853Z,12.90
2022-12-03T16:40:18.732Z,15.60
2022-12-03T16:42:49.427Z,14.03
2022-12-03T16:45:25.169Z,15.63
2022-12-03T16:47:55.863Z,14.50
2022-12-03T16:50:29.778Z,13.10
2022-12-03T16:52:58.633Z,14.77
2022-12-03T16:55:29.302Z,13.87
2022-12-03T16:57:59.987Z,15.37
2022-12-03T17:00:30.631Z,15.87
2022-12-03T17:03:01.318Z,14.80
2022-12-03T17:05:32.077Z,15.13
2022-12-03T17:08:02.766Z,14.77
2022-12-03T17:10:33.884Z,15.37
2022-12-03T17:13:11.720Z,15.17
2022-12-03T17:15:37.249Z,15.10
2022-12-03T17:18:09.097Z,15.83
2022-12-03T17:20:39.779Z,15.17
2022-12-03T17:23:10.488Z,14.57
2022-12-03T17:25:42.270Z,14.97
2022-12-03T17:28:12.890Z,14.03
2022-12-03T17:30:44.486Z,14.33
2022-12-03T17:33:16.881Z,12.77
2022-12-03T17:35:48.394Z,12.77
2022-12-03T17:38:19.140Z,13.77
2022-12-03T17:40:50.609Z,13.33
2022-12-03T17:43:21.432Z,12.90
2022-12-03T17:45:52.529Z,12.97
2022-12-03T17:48:23.649Z,12.73
2022-12-03T17:50:55.650Z,12.67
2022-12-03T17:53:26.687Z,13.23
2022-12-03T17:55:57.479Z,13.00
2022-12-03T17:58:28.766Z,13.50
2022-12-03T18:01:03.038Z,12.33
2022-12-03T18:03:34.159Z,12.13
2022-12-03T18:06:05.635Z,12.20
2022-12-03T18:08:36.839Z,12.73
2022-12-03T18:11:08.391Z,12.37
2022-12-03T18:13:39.061Z,11.43
2022-12-03T18:16:10.458Z,13.00
2022-12-03T18:18:42.176Z,13.07
2022-12-03T18:21:13.938Z,12.33
2022-12-03T18:23:45.314Z,13.20
2022-12-03T18:26:16.516Z,12.10
2022-12-03T18:28:47.664Z,12.07
2022-12-03T18:31:20.721Z,12.53
2022-12-03T18:33:51.951Z,13.43
2022-12-03T18:36:24.095Z,12.97
2022-12-03T18:41:36.298Z,15.00
2022-12-03T18:44:09.936Z,15.13
2022-12-03T18:46:56.119Z,13.03
2022-12-03T18:49:13.263Z,14.60
2022-12-03T18:51:44.044Z,14.93
2022-12-03T18:54:15.832Z,14.73
2022-12-03T18:56:46.588Z,16.30
2022-12-03T18:59:17.211Z,16.53
2022-12-03T19:01:47.806Z,17.50
2022-12-03T19:04:18.461Z,15.77
2022-12-03T19:06:49.218Z,16.27
2022-12-03T19:09:19.884Z,16.87
2022-12-03T19:11:50.712Z,17.47
2022-12-03T19:14:21.523Z,17.60
2022-12-03T19:16:52.356Z,16.60
2022-12-03T19:19:24.920Z,17.10
2022-12-03T19:21:55.761Z,17.43
2022-12-03T19:24:27.600Z,17.63
2022-12-03T19:26:58.335Z,17.40
2022-12-03T19:29:29.336Z,18.37
2022-12-03T19:32:00.216Z,19.53
2022-12-03T19:34:31.380Z,19.00
2022-12-03T19:37:02.119Z,19.07
2022-12-03T19:39:33.563Z,19.27
2022-12-03T19:42:04.900Z,20.27
2022-12-03T19:44:35.610Z,20.10
2022-12-03T19:47:06.427Z,20.37
2022-12-03T19:49:37.960Z,21.20
2022-12-03T19:52:08.681Z,19.70
2022-12-03T19:54:39.854Z,20.17
2022-12-03T19:57:10.631Z,19.07
2022-12-03T19:59:42.746Z,19.03
2022-12-03T20:02:14.006Z,18.53
2022-12-03T20:04:45.017Z,17.97
2022-12-03T20:07:15.996Z,18.67
2022-12-03T20:09:46.839Z,19.30
2022-12-03T20:12:17.574Z,18.80
2022-12-03T20:14:50.143Z,19.90
2022-12-03T20:17:20.922Z,18.83
2022-12-03T20:19:51.865Z,19.67
2022-12-03T20:22:22.697Z,18.47
2022-12-03T20:24:54.010Z,20.57
2022-12-03T20:27:25.868Z,18.70
2022-12-03T20:29:57.183Z,17.07
2022-12-03T20:32:28.225Z,19.07
2022-12-03T20:35:00.077Z,17.13
2022-12-03T20:37:32.206Z,18.13
2022-12-03T20:40:03.173Z,17.97
2022-12-03T20:42:33.802Z,16.80
2022-12-03T20:45:05.169Z,17.20
2022-12-03T20:47:35.824Z,16.67
2022-12-03T20:50:08.395Z,16.33
2022-12-03T20:52:45.255Z,16.43
2022-12-03T20:55:13.263Z,15.97
2022-12-03T20:57:43.828Z,15.87
2022-12-03T21:00:16.210Z,17.63
2022-12-03T21:02:47.022Z,15.90
2022-12-03T21:05:18.740Z,15.70
2022-12-03T21:07:52.220Z,15.87
2022-12-03T21:10:39.630Z,16.47
2022-12-03T21:13:10.297Z,16.80
2022-12-03T21:15:41.069Z,16.20
2022-12-03T21:18:14.289Z,16.03
2022-12-03T21:20:46.313Z,16.43
2022-12-03T21:23:17.550Z,14.90
2022-12-03T21:25:48.188Z,15.77
2022-12-03T21:28:19.814Z,15.80
2022-12-03T21:30:50.461Z,16.53
2022-12-03T21:33:21.228Z,15.70
2022-12-03T21:35:51.919Z,16.27
2022-12-03T21:38:23.219Z,13.83
2022-12-03T21:40:53.895Z,15.03
2022-12-03T21:43:25.412Z,15.50
2022-12-03T21:45:57.144Z,15.50
2022-12-03T21:48:27.718Z,15.00
2022-12-03T21:51:03.602Z,15.73
2022-12-03T21:53:37.917Z,15.43
2022-12-03T21:56:09.852Z,15.43
2022-12-03T21:58:40.943Z,15.67
2022-12-03T22:01:17.148Z,15.87
2022-12-03T22:03:48.040Z,15.97
2022-12-03T22:06:19.191Z,17.00
2022-12-03T22:08:50.672Z,16.50
2022-12-03T22:11:22.672Z,17.03
2022-12-03T22:13:54.674Z,16.53
2022-12-03T22:16:25.457Z,15.57
2022-12-03T22:18:56.862Z,15.83
2022-12-03T22:21:27.748Z,15.43
2022-12-03T22:23:59.062Z,15.57
2022-12-03T22:26:29.820Z,15.87
2022-12-03T22:29:00.882Z,15.03
2022-12-03T22:31:31.500Z,14.53
2022-12-03T22:34:02.063Z,14.97
2022-12-03T22:36:32.872Z,15.70
2022-12-03T22:39:03.376Z,16.43
2022-12-03T22:41:33.994Z,14.93
2022-12-03T22:44:04.596Z,16.93
2022-12-03T22:46:35.253Z,16.83
2022-12-03T22:49:07.571Z,17.30
2022-12-03T22:51:38.589Z,16.20
2022-12-03T22:54:09.162Z,16.77
2022-12-03T22:56:39.953Z,15.97
2022-12-03T22:59:10.929Z,16.33
2022-12-03T23:01:42.911Z,16.23
2022-12-03T23:04:13.880Z,16.07
2022-12-03T23:06:44.747Z,14.83
2022-12-03T23:09:15.316Z,15.37
2022-12-03T23:11:46.695Z,15.33
2022-12-03T23:14:17.297Z,15.87
2022-12-03T23:16:47.875Z,14.77
2022-12-03T23:19:20.050Z,16.47
2022-12-03T23:21:50.597Z,15.50
2022-12-03T23:24:21.173Z,16.33
2022-12-03T23:26:51.738Z,17.77
2022-12-03T23:29:22.651Z,15.80
2022-12-03T23:31:53.267Z,17.13
2022-12-03T23:34:24.002Z,16.53
2022-12-03T23:36:54.782Z,16.93
2022-12-03T23:39:25.346Z,17.17
2022-12-03T23:41:55.938Z,16.17
2022-12-03T23:44:28.263Z,16.07
2022-12-03T23:46:58.999Z,16.83
2022-12-03T23:49:30.485Z,16.93
2022-12-03T23:52:01.061Z,17.63
2022-12-03T23:54:31.603Z,15.83
2022-12-03T23:57:02.255Z,16.03
2022-12-03T23:59:32.822Z,16.47
